Harmony G — SX8625 — position and weather

sailwx.info

Track history (hours):
 
Tides and Currents Weather Stations Pressure Air Temp Water Temp Dewpoint Dewpoint Depression Visibility Wind Speed Wind Dir Waves Ship Positions

Harmony G

Last reported at 2018-Apr-06 04:11 UTC. Time now 2018-Apr-20 14:42 UTC.
Position N 16°40' W 024°52'.
Warning: this ship's position is 14 days out of date.

Length 53 m; draft 3 m.

Type: Passenger vessel. MMSI: 239780000.

Date/timePositionNaut miles runAvg speedWind from/ knotsBaromVisibWave heightAir tempDewpointWater temp
2018-Apr-06 04:11N 16°40' W 024°52'2 9.1
2018-Apr-06 04:00N 16°41' W 024°53'5 9.1
2018-Apr-06 03:30N 16°43' W 024°57'5 9.2
2018-Apr-06 03:00N 16°45' W 025°01'4 9.0
2018-Apr-06 02:30N 16°48' W 025°05'4 7.9
2018-Apr-06 02:00N 16°52' W 025°06'4 9.2
2018-Apr-06 01:30N 16°56' W 025°05'5 9.1
2018-Apr-06 01:00N 17°00' W 025°04'1 1.0
2018-Apr-06 00:26N 17°01' W 025°04'0 0.0
2018-Apr-05 23:59N 17°01' W 025°04'0 0.0
2018-Apr-05 23:30N 17°01' W 025°04'0 0.0
2018-Apr-05 23:00N 17°01' W 025°04'0 0.0
2018-Apr-05 22:30N 17°01' W 025°04'0 0.0
2018-Apr-05 21:58N 17°01' W 025°04'0 0.0
2018-Apr-05 21:28N 17°01' W 025°04'0 0.0
2018-Apr-05 20:58N 17°01' W 025°04'0 0.0
2018-Apr-05 20:23N 17°01' W 025°04'0 0.0
2018-Apr-05 19:59N 17°01' W 025°04'0 0.0
2018-Apr-05 19:29N 17°01' W 025°04'0 0.0
2018-Apr-05 19:00N 17°01' W 025°04'0 0.0
2018-Apr-05 18:30N 17°01' W 025°04'0 0.0
2018-Apr-05 17:57N 17°01' W 025°04'0 0.0
2018-Apr-05 17:28N 17°01' W 025°04'0 0.0
2018-Apr-05 16:58N 17°01' W 025°04'0 0.0
2018-Apr-05 16:28N 17°01' W 025°04'0 0.0
2018-Apr-05 15:59N 17°01' W 025°04'0 0.0
2018-Apr-05 15:23N 17°01' W 025°04'0 0.0
2018-Apr-05 14:45N 17°01' W 025°04'0 0.0
2018-Apr-05 13:48N 17°01' W 025°04'0 0.0
2018-Apr-05 13:30N 17°01' W 025°04'0 0.0
2018-Apr-05 12:55N 17°01' W 025°04'0 0.0
2018-Apr-05 12:19N 17°01' W 025°04'0 0.0
2018-Apr-05 11:58N 17°01' W 025°04'0 0.0
2018-Apr-05 11:29N 17°01' W 025°04'0 0.0
2018-Apr-05 10:53N 17°01' W 025°04'0 0.0
2018-Apr-05 10:23N 17°01' W 025°04'0 0.0
2018-Apr-05 10:00N 17°01' W 025°04'0 0.0
2018-Apr-05 09:30N 17°01' W 025°04'0 0.0
2018-Apr-05 09:00N 17°01' W 025°04'0 0.0
2018-Apr-05 08:28N 17°01' W 025°04'0 0.6
2018-Apr-05 08:01N 17°01' W 025°04'4 8.5
2018-Apr-05 07:30N 16°57' W 025°03'4 8.6
2018-Apr-05 07:00N 16°53' W 024°60'0 0.2
2018-Apr-05 06:29N 16°53' W 024°60'0 0.0
2018-Apr-05 05:59N 16°53' W 024°60'0 0.0
2018-Apr-05 05:30N 16°53' W 024°60'0 0.0
2018-Apr-05 05:00N 16°53' W 024°60'0 0.0
2018-Apr-05 04:30N 16°53' W 024°60'0 0.0
2018-Apr-05 03:58N 16°53' W 024°60'0 0.0
2018-Apr-05 03:22N 16°53' W 024°60'0 0.0
2018-Apr-05 02:58N 16°53' W 024°60'0 0.0
2018-Apr-05 02:29N 16°53' W 024°60'0 0.0
2018-Apr-05 01:59N 16°53' W 024°60'0 0.0
2018-Apr-05 01:29N 16°53' W 024°60'0 0.0
2018-Apr-05 01:00N 16°53' W 024°60'0 0.0
2018-Apr-05 00:30N 16°53' W 024°60'0 0.0
2018-Apr-05 00:00N 16°53' W 024°60'0 0.0
2018-Apr-04 23:28N 16°53' W 024°60'0 0.0
2018-Apr-04 22:58N 16°53' W 024°60'0 0.0
2018-Apr-04 22:28N 16°53' W 024°60'0 0.0
2018-Apr-04 21:59N 16°53' W 024°60'0 0.0
2018-Apr-04 21:29N 16°53' W 024°60'0 0.0
2018-Apr-04 20:59N 16°53' W 024°60'0 0.0
2018-Apr-04 20:27N 16°53' W 024°60'0 0.0
2018-Apr-04 20:00N 16°53' W 024°60'0 0.0
2018-Apr-04 19:30N 16°53' W 024°60'0 0.0
2018-Apr-04 18:58N 16°53' W 024°60'0 0.0
2018-Apr-04 18:28N 16°53' W 024°60'0 0.0
2018-Apr-04 17:58N 16°53' W 024°60'0 0.0
2018-Apr-04 17:29N 16°53' W 024°60'0 0.0
2018-Apr-04 16:59N 16°53' W 024°60'0 0.0
2018-Apr-04 16:29N 16°53' W 024°60'0 0.0
2018-Apr-04 16:00N 16°53' W 024°60'0 0.0
2018-Apr-04 15:30N 16°53' W 024°60'0 0.0
2018-Apr-04 15:00N 16°53' W 024°60'0 0.0
2018-Apr-04 14:28N 16°53' W 024°60'0 0.0
2018-Apr-04 13:58N 16°53' W 024°60'0 0.0
2018-Apr-04 13:28N 16°53' W 024°60'0 0.0
2018-Apr-04 12:59N 16°53' W 024°60'0 0.0
2018-Apr-04 12:29N 16°53' W 024°60'0 0.0
2018-Apr-04 11:59N 16°53' W 024°60'0 0.0
2018-Apr-04 11:30N 16°53' W 024°60'0 0.0
2018-Apr-04 11:00N 16°53' W 024°60'0 0.0
2018-Apr-04 10:30N 16°53' W 024°60'0 0.0
2018-Apr-04 09:58N 16°53' W 024°60'0 0.0
2018-Apr-04 09:28N 16°53' W 024°60'0 0.0
2018-Apr-04 08:58N 16°53' W 024°60'0 0.0
2018-Apr-04 08:29N 16°53' W 024°60'0 0.0
2018-Apr-04 08:00N 16°53' W 024°60'2 3.1
2018-Apr-04 07:30N 16°54' W 025°01'4 7.2
2018-Apr-04 07:00N 16°53' W 025°05'4 8.3
2018-Apr-04 06:29N 16°49' W 025°07'4 8.8
2018-Apr-04 06:00N 16°45' W 025°06'5 9.3
2018-Apr-04 05:30N 16°41' W 025°05'6 8.6
2018-Apr-04 04:51N 16°35' W 025°03'  
2018-Mar-30 19:22N 16°39' W 024°49'510.0
2018-Mar-30 18:55N 16°40' W 024°54'4 9.2
2018-Mar-30 18:30N 16°42' W 024°57'5 9.1
2018-Mar-30 18:00N 16°44' W 025°02'510.1
2018-Mar-30 17:31N 16°48' W 025°05'5 9.5
2018-Mar-30 17:01N 16°52' W 025°06'5 9.8
2018-Mar-30 16:30N 16°57' W 025°05'4 7.1
2018-Mar-30 15:56N 17°01' W 025°04'0 0.0
2018-Mar-30 15:30N 17°01' W 025°04'0 0.0
2018-Mar-30 15:00N 17°01' W 025°04'0 0.0
2018-Mar-30 14:27N 17°01' W 025°04'0 0.0
2018-Mar-30 13:55N 17°01' W 025°04'0 0.0
2018-Mar-30 13:28N 17°01' W 025°04'0 0.0
2018-Mar-30 12:58N 17°01' W 025°04'0 0.0
2018-Mar-30 12:26N 17°01' W 025°04'0 0.0
2018-Mar-30 11:59N 17°01' W 025°04'0 0.0
2018-Mar-30 11:29N 17°01' W 025°04'0 0.0
2018-Mar-30 11:00N 17°01' W 025°04'0 0.0
2018-Mar-30 10:27N 17°01' W 025°04'0 0.0
2018-Mar-30 10:00N 17°01' W 025°04'0 0.0
2018-Mar-30 09:28N 17°01' W 025°04'0 0.0
2018-Mar-30 08:58N 17°01' W 025°04'0 0.0
2018-Mar-30 08:28N 17°01' W 025°04'0 0.0
2018-Mar-30 07:59N 17°01' W 025°04'0 0.0
2018-Mar-30 07:23N 17°01' W 025°04'0 0.0
2018-Mar-30 06:50N 17°01' W 025°04'0 0.0
2018-Mar-30 06:24N 17°01' W 025°04'0 0.0
2018-Mar-30 06:00N 17°01' W 025°04'0 0.0
2018-Mar-30 05:13N 17°01' W 025°04'0 0.0
2018-Mar-30 04:46N 17°01' W 025°04'0 0.0
2018-Mar-30 04:28N 17°01' W 025°04'0 0.0
2018-Mar-30 02:35N 17°01' W 025°04'0 0.0
2018-Mar-30 02:20N 17°01' W 025°04'0 0.0
2018-Mar-30 01:48N 17°01' W 025°04'  
Track history (hours):
 
Tides and Currents Weather Stations Pressure Air Temp Water Temp Dewpoint Dewpoint Depression Visibility Wind Speed Wind Dir Waves Ship Positions

Harmony G

Last reported at 2018-Apr-06 04:11 UTC. Time now 2018-Apr-20 14:42 UTC.
Position N 16°40' W 024°52'.
Warning: this ship's position is 14 days out of date.

Length 53 m; draft 3 m.

Type: Passenger vessel. MMSI: 239780000.

Date/timePositionNaut miles runAvg speedWind from/ knotsBaromVisibWave heightAir tempDewpointWater temp
2018-Apr-06 04:11N 16°40' W 024°52'2 9.1
2018-Apr-06 04:00N 16°41' W 024°53'5 9.1
2018-Apr-06 03:30N 16°43' W 024°57'5 9.2
2018-Apr-06 03:00N 16°45' W 025°01'4 9.0
2018-Apr-06 02:30N 16°48' W 025°05'4 7.9
2018-Apr-06 02:00N 16°52' W 025°06'4 9.2
2018-Apr-06 01:30N 16°56' W 025°05'5 9.1
2018-Apr-06 01:00N 17°00' W 025°04'1 1.0
2018-Apr-06 00:26N 17°01' W 025°04'0 0.0
2018-Apr-05 23:59N 17°01' W 025°04'0 0.0
2018-Apr-05 23:30N 17°01' W 025°04'0 0.0
2018-Apr-05 23:00N 17°01' W 025°04'0 0.0
2018-Apr-05 22:30N 17°01' W 025°04'0 0.0
2018-Apr-05 21:58N 17°01' W 025°04'0 0.0
2018-Apr-05 21:28N 17°01' W 025°04'0 0.0
2018-Apr-05 20:58N 17°01' W 025°04'0 0.0
2018-Apr-05 20:23N 17°01' W 025°04'0 0.0
2018-Apr-05 19:59N 17°01' W 025°04'0 0.0
2018-Apr-05 19:29N 17°01' W 025°04'0 0.0
2018-Apr-05 19:00N 17°01' W 025°04'0 0.0
2018-Apr-05 18:30N 17°01' W 025°04'0 0.0
2018-Apr-05 17:57N 17°01' W 025°04'0 0.0
2018-Apr-05 17:28N 17°01' W 025°04'0 0.0
2018-Apr-05 16:58N 17°01' W 025°04'0 0.0
2018-Apr-05 16:28N 17°01' W 025°04'0 0.0
2018-Apr-05 15:59N 17°01' W 025°04'0 0.0
2018-Apr-05 15:23N 17°01' W 025°04'0 0.0
2018-Apr-05 14:45N 17°01' W 025°04'0 0.0
2018-Apr-05 13:48N 17°01' W 025°04'0 0.0
2018-Apr-05 13:30N 17°01' W 025°04'0 0.0
2018-Apr-05 12:55N 17°01' W 025°04'0 0.0
2018-Apr-05 12:19N 17°01' W 025°04'0 0.0
2018-Apr-05 11:58N 17°01' W 025°04'0 0.0
2018-Apr-05 11:29N 17°01' W 025°04'0 0.0
2018-Apr-05 10:53N 17°01' W 025°04'0 0.0
2018-Apr-05 10:23N 17°01' W 025°04'0 0.0
2018-Apr-05 10:00N 17°01' W 025°04'0 0.0
2018-Apr-05 09:30N 17°01' W 025°04'0 0.0
2018-Apr-05 09:00N 17°01' W 025°04'0 0.0
2018-Apr-05 08:28N 17°01' W 025°04'0 0.6
2018-Apr-05 08:01N 17°01' W 025°04'4 8.5
2018-Apr-05 07:30N 16°57' W 025°03'4 8.6
2018-Apr-05 07:00N 16°53' W 024°60'0 0.2
2018-Apr-05 06:29N 16°53' W 024°60'0 0.0
2018-Apr-05 05:59N 16°53' W 024°60'0 0.0
2018-Apr-05 05:30N 16°53' W 024°60'0 0.0
2018-Apr-05 05:00N 16°53' W 024°60'0 0.0
2018-Apr-05 04:30N 16°53' W 024°60'0 0.0
2018-Apr-05 03:58N 16°53' W 024°60'0 0.0
2018-Apr-05 03:22N 16°53' W 024°60'0 0.0
2018-Apr-05 02:58N 16°53' W 024°60'0 0.0
2018-Apr-05 02:29N 16°53' W 024°60'0 0.0
2018-Apr-05 01:59N 16°53' W 024°60'0 0.0
2018-Apr-05 01:29N 16°53' W 024°60'0 0.0
2018-Apr-05 01:00N 16°53' W 024°60'0 0.0
2018-Apr-05 00:30N 16°53' W 024°60'0 0.0
2018-Apr-05 00:00N 16°53' W 024°60'0 0.0
2018-Apr-04 23:28N 16°53' W 024°60'0 0.0
2018-Apr-04 22:58N 16°53' W 024°60'0 0.0
2018-Apr-04 22:28N 16°53' W 024°60'0 0.0
2018-Apr-04 21:59N 16°53' W 024°60'0 0.0
2018-Apr-04 21:29N 16°53' W 024°60'0 0.0
2018-Apr-04 20:59N 16°53' W 024°60'0 0.0
2018-Apr-04 20:27N 16°53' W 024°60'0 0.0
2018-Apr-04 20:00N 16°53' W 024°60'0 0.0
2018-Apr-04 19:30N 16°53' W 024°60'0 0.0
2018-Apr-04 18:58N 16°53' W 024°60'0 0.0
2018-Apr-04 18:28N 16°53' W 024°60'0 0.0
2018-Apr-04 17:58N 16°53' W 024°60'0 0.0
2018-Apr-04 17:29N 16°53' W 024°60'0 0.0
2018-Apr-04 16:59N 16°53' W 024°60'0 0.0
2018-Apr-04 16:29N 16°53' W 024°60'0 0.0
2018-Apr-04 16:00N 16°53' W 024°60'0 0.0
2018-Apr-04 15:30N 16°53' W 024°60'0 0.0
2018-Apr-04 15:00N 16°53' W 024°60'0 0.0
2018-Apr-04 14:28N 16°53' W 024°60'0 0.0
2018-Apr-04 13:58N 16°53' W 024°60'0 0.0
2018-Apr-04 13:28N 16°53' W 024°60'0 0.0
2018-Apr-04 12:59N 16°53' W 024°60'0 0.0
2018-Apr-04 12:29N 16°53' W 024°60'0 0.0
2018-Apr-04 11:59N 16°53' W 024°60'0 0.0
2018-Apr-04 11:30N 16°53' W 024°60'0 0.0
2018-Apr-04 11:00N 16°53' W 024°60'0 0.0
2018-Apr-04 10:30N 16°53' W 024°60'0 0.0
2018-Apr-04 09:58N 16°53' W 024°60'0 0.0
2018-Apr-04 09:28N 16°53' W 024°60'0 0.0
2018-Apr-04 08:58N 16°53' W 024°60'0 0.0
2018-Apr-04 08:29N 16°53' W 024°60'0 0.0
2018-Apr-04 08:00N 16°53' W 024°60'2 3.1
2018-Apr-04 07:30N 16°54' W 025°01'4 7.2
2018-Apr-04 07:00N 16°53' W 025°05'4 8.3
2018-Apr-04 06:29N 16°49' W 025°07'4 8.8
2018-Apr-04 06:00N 16°45' W 025°06'5 9.3
2018-Apr-04 05:30N 16°41' W 025°05'6 8.6
2018-Apr-04 04:51N 16°35' W 025°03'  
2018-Mar-30 19:22N 16°39' W 024°49'510.0
2018-Mar-30 18:55N 16°40' W 024°54'4 9.2
2018-Mar-30 18:30N 16°42' W 024°57'5 9.1
2018-Mar-30 18:00N 16°44' W 025°02'510.1
2018-Mar-30 17:31N 16°48' W 025°05'5 9.5
2018-Mar-30 17:01N 16°52' W 025°06'5 9.8
2018-Mar-30 16:30N 16°57' W 025°05'4 7.1
2018-Mar-30 15:56N 17°01' W 025°04'0 0.0
2018-Mar-30 15:30N 17°01' W 025°04'0 0.0
2018-Mar-30 15:00N 17°01' W 025°04'0 0.0
2018-Mar-30 14:27N 17°01' W 025°04'0 0.0
2018-Mar-30 13:55N 17°01' W 025°04'0 0.0
2018-Mar-30 13:28N 17°01' W 025°04'0 0.0
2018-Mar-30 12:58N 17°01' W 025°04'0 0.0
2018-Mar-30 12:26N 17°01' W 025°04'0 0.0
2018-Mar-30 11:59N 17°01' W 025°04'0 0.0
2018-Mar-30 11:29N 17°01' W 025°04'0 0.0
2018-Mar-30 11:00N 17°01' W 025°04'0 0.0
2018-Mar-30 10:27N 17°01' W 025°04'0 0.0
2018-Mar-30 10:00N 17°01' W 025°04'0 0.0
2018-Mar-30 09:28N 17°01' W 025°04'0 0.0
2018-Mar-30 08:58N 17°01' W 025°04'0 0.0
2018-Mar-30 08:28N 17°01' W 025°04'0 0.0
2018-Mar-30 07:59N 17°01' W 025°04'0 0.0
2018-Mar-30 07:23N 17°01' W 025°04'0 0.0
2018-Mar-30 06:50N 17°01' W 025°04'0 0.0
2018-Mar-30 06:24N 17°01' W 025°04'0 0.0
2018-Mar-30 06:00N 17°01' W 025°04'0 0.0
2018-Mar-30 05:13N 17°01' W 025°04'0 0.0
2018-Mar-30 04:46N 17°01' W 025°04'0 0.0
2018-Mar-30 04:28N 17°01' W 025°04'0 0.0
2018-Mar-30 02:35N 17°01' W 025°04'0 0.0
2018-Mar-30 02:20N 17°01' W 025°04'0 0.0
2018-Mar-30 01:48N 17°01' W 025°04'  

Dump ship's entire track history